Time;durP1;ratioP1;P1;durP2;ratioP2;P2;SDS_P1;SDS_P2;PMS_P1;PMS_P2;Temp;Humidity;BMP_temperature;BMP_pressure;BME280_temperature;BME280_humidity;BME280_pressure;Samples;Min_cycle;Max_cycle;Signal;HPM_P1;HPM_P2
2023/03/19 00:01:37;;;;;;;;;;;;;;;;;;4426918;32;19936;-80
2023/03/19 00:04:03;;;;;;;;;;;;;;;;;;4428696;32;19936;-80
2023/03/19 00:06:28;;;;;;;;;;;;;;;;;;4449860;32;19941;-80
2023/03/19 00:08:53;;;;;;;;;;;;;;;;;;4452146;32;19945;-79
2023/03/19 00:11:18;;;;;;;;;;;;;;;;;;4432891;32;20260;-80
2023/03/19 00:13:44;;;;;;;;;;;;;;;;;;4445974;32;19991;-80
2023/03/19 00:16:09;;;;;;;;;;;;;;;;;;4433546;32;19933;-79
2023/03/19 00:18:35;;;;;;;;;;;;;;;;;;4448389;32;19968;-80
2023/03/19 00:21:00;;;;;;;;;;;;;;;;;;4435404;32;19932;-80
2023/03/19 00:23:25;;;;;;;;;;;;;;;;;;4450655;32;19949;-79
2023/03/19 00:25:51;;;;;;;;;;;;;;;;;;4434746;32;19945;-79
2023/03/19 00:28:16;;;;;;;;;;;;;;;;;;4432689;32;19937;-79
2023/03/19 00:30:41;;;;;;;;;;;;;;;;;;4431555;32;19952;-80
2023/03/19 00:33:06;;;;;;;;;;;;;;;;;;4448091;32;19944;-80
2023/03/19 00:35:32;;;;;;;;;;;;;;;;;;4447441;32;19990;-79
2023/03/19 00:37:57;;;;;;;;;;;;;;;;;;4434219;32;19947;-79
2023/03/19 00:40:22;;;;;;;;;;;;;;;;;;4446131;32;19951;-79
2023/03/19 00:42:47;;;;;;;;;;;;;;;;;;4444797;32;19945;-78
2023/03/19 00:45:13;;;;;;;;;;;;;;;;;;4439643;32;19933;-79
2023/03/19 00:47:38;;;;;;;;;;;;;;;;;;4424985;32;19970;-79
2023/03/19 00:50:03;;;;;;;;;;;;;;;;;;4425484;32;19947;-79
2023/03/19 00:52:28;;;;;;;;;;;;;;;;;;4439196;32;19976;-79
2023/03/19 00:54:53;;;;;;;;;;;;;;;;;;4424693;32;19944;-80
2023/03/19 00:57:18;;;;;;;;;;;;;;;;;;4438826;32;19971;-80
2023/03/19 00:59:43;;;;;;;;;;;;;;;;;;4438561;32;19974;-80
2023/03/19 01:02:08;;;;;;;;;;;;;;;;;;4425350;32;19940;-80
2023/03/19 01:04:33;;;;;;;;;;;;;;;;;;4424639;32;20127;-80
2023/03/19 01:06:59;;;;;;;;;;;;;;;;;;4426152;32;19941;-80
2023/03/19 01:09:24;;;;;;;;;;;;;;;;;;4444148;32;20299;-81
2023/03/19 01:11:49;;;;;;;;;;;;;;;;;;4435521;32;19973;-79
2023/03/19 01:14:15;;;;;;;;;;;;;;;;;;4427743;32;20035;-81
2023/03/19 01:16:40;;;;;;;;;;;;;;;;;;4425609;32;19940;-80
2023/03/19 01:19:06;;;;;;;;;;;;;;;;;;4439512;32;20277;-80
2023/03/19 01:21:31;;;;;;;;;;;;;;;;;;4439029;32;19951;-81
2023/03/19 01:23:56;;;;;;;;;;;;;;;;;;4424519;32;19937;-81
2023/03/19 01:26:21;;;;;;;;;;;;;;;;;;4438436;32;19956;-81
2023/03/19 01:28:47;;;;;;;;;;;;;;;;;;4438027;32;19944;-81
2023/03/19 01:31:12;;;;;;;;;;;;;;;;;;4424074;32;19992;-81
2023/03/19 01:33:37;;;;;;;;;;;;;;;;;;4424840;32;20249;-81
2023/03/19 01:36:03;;;;;;;;;;;;;;;;;;4438377;32;20321;-81
2023/03/19 01:38:28;;;;;;;;;;;;;;;;;;4427563;32;19962;-81
2023/03/19 01:40:54;;;;;;;;;;;;;;;;;;4444375;32;19988;-81
2023/03/19 01:43:19;;;;;;;;;;;;;;;;;;4431425;32;19929;-81
2023/03/19 01:45:44;;;;;;;;;;;;;;;;;;4441776;32;20301;-81
2023/03/19 01:48:09;;;;;;;;;;;;;;;;;;4425041;32;19937;-80
2023/03/19 01:50:35;;;;;;;;;;;;;;;;;;4437736;32;19937;-81
2023/03/19 01:53:00;;;;;;;;;;;;;;;;;;4438012;32;19974;-81
2023/03/19 01:55:26;;;;;;;;;;;;;;;;;;4424335;32;19969;-80
2023/03/19 01:57:51;;;;;;;;;;;;;;;;;;4424925;32;19936;-81
2023/03/19 02:00:16;;;;;;;;;;;;;;;;;;4424034;32;19940;-81
2023/03/19 02:02:42;;;;;;;;;;;;;;;;;;4423693;32;20273;-81
2023/03/19 02:05:07;;;;;;;;;;;;;;;;;;4438299;32;19983;-81
2023/03/19 02:07:32;;;;;;;;;;;;;;;;;;4424877;32;19937;-81
2023/03/19 02:09:58;;;;;;;;;;;;;;;;;;4446025;32;19937;-81
2023/03/19 02:12:31;;;;;;;;;;;;;;;;;;4440041;32;19946;-81
2023/03/19 02:17:40;;;;;;;;;;;;;;;;;;4440103;32;19927;-80
2023/03/19 02:20:05;;;;;;;;;;;;;;;;;;4446285;32;19976;-80
2023/03/19 02:22:30;;;;;;;;;;;;;;;;;;4425506;32;20322;-81
2023/03/19 02:24:55;;;;;;;;;;;;;;;;;;4438336;32;20361;-81
2023/03/19 02:27:21;;;;;;;;;;;;;;;;;;4423334;32;19941;-81
2023/03/19 02:29:46;;;;;;;;;;;;;;;;;;4423774;32;19948;-81
2023/03/19 02:32:11;;;;;;;;;;;;;;;;;;4424548;32;19952;-81
2023/03/19 02:34:36;;;;;;;;;;;;;;;;;;4423102;32;19947;-81
2023/03/19 02:37:02;;;;;;;;;;;;;;;;;;4438139;32;19973;-81
2023/03/19 02:39:27;;;;;;;;;;;;;;;;;;4423912;32;20347;-79
2023/03/19 02:41:52;;;;;;;;;;;;;;;;;;4422642;32;19937;-80
2023/03/19 02:44:18;;;;;;;;;;;;;;;;;;4422887;32;19985;-80
2023/03/19 02:46:43;;;;;;;;;;;;;;;;;;4423084;32;20075;-80
2023/03/19 02:49:09;;;;;;;;;;;;;;;;;;4423053;32;19936;-80
2023/03/19 02:51:34;;;;;;;;;;;;;;;;;;4444807;32;19941;-81
2023/03/19 02:53:59;;;;;;;;;;;;;;;;;;4429850;32;19933;-81
2023/03/19 02:56:25;;;;;;;;;;;;;;;;;;4446057;32;19979;-81
2023/03/19 02:58:50;;;;;;;;;;;;;;;;;;4439337;32;20290;-80
2023/03/19 03:01:15;;;;;;;;;;;;;;;;;;4423970;32;20331;-80
2023/03/19 03:03:40;;;;;;;;;;;;;;;;;;4437322;32;20268;-81
2023/03/19 03:06:05;;;;;;;;;;;;;;;;;;4423364;32;20011;-81
2023/03/19 03:08:30;;;;;;;;;;;;;;;;;;4436472;32;19970;-81
2023/03/19 03:10:56;;;;;;;;;;;;;;;;;;4423760;32;19952;-81
2023/03/19 03:13:21;;;;;;;;;;;;;;;;;;4422536;32;19941;-81
2023/03/19 03:15:46;;;;;;;;;;;;;;;;;;4441263;32;19947;-81
2023/03/19 03:18:11;;;;;;;;;;;;;;;;;;4438624;32;19973;-81
2023/03/19 03:20:36;;;;;;;;;;;;;;;;;;4441648;32;19974;-80
2023/03/19 03:23:01;;;;;;;;;;;;;;;;;;4423789;32;19955;-80
2023/03/19 03:25:26;;;;;;;;;;;;;;;;;;4424206;32;19937;-80
2023/03/19 03:27:52;;;;;;;;;;;;;;;;;;4423013;32;19937;-81
2023/03/19 03:30:17;;;;;;;;;;;;;;;;;;4437075;32;19978;-81
2023/03/19 03:32:42;;;;;;;;;;;;;;;;;;4422091;32;19933;-81
2023/03/19 03:35:07;;;;;;;;;;;;;;;;;;4422345;32;19937;-81
2023/03/19 03:37:32;;;;;;;;;;;;;;;;;;4437846;32;19974;-81
2023/03/19 03:39:57;;;;;;;;;;;;;;;;;;4436565;32;19936;-81
2023/03/19 03:42:22;;;;;;;;;;;;;;;;;;4422249;32;19989;-81
2023/03/19 03:44:47;;;;;;;;;;;;;;;;;;4436227;32;19948;-81
2023/03/19 03:47:13;;;;;;;;;;;;;;;;;;4422323;32;20402;-81
2023/03/19 03:49:38;;;;;;;;;;;;;;;;;;4436516;32;20285;-81
2023/03/19 03:52:03;;;;;;;;;;;;;;;;;;4422484;32;19937;-81
2023/03/19 03:54:28;;;;;;;;;;;;;;;;;;4422602;32;19936;-81
2023/03/19 03:56:53;;;;;;;;;;;;;;;;;;4438202;32;19982;-81
2023/03/19 03:59:18;;;;;;;;;;;;;;;;;;4435899;32;19971;-81
2023/03/19 04:01:43;;;;;;;;;;;;;;;;;;4436148;32;19956;-81
2023/03/19 04:04:08;;;;;;;;;;;;;;;;;;4435598;32;19933;-81
2023/03/19 04:06:34;;;;;;;;;;;;;;;;;;4440761;32;20000;-81
2023/03/19 04:08:59;;;;;;;;;;;;;;;;;;4438911;32;19951;-80
2023/03/19 04:11:24;;;;;;;;;;;;;;;;;;4436953;32;20319;-80
2023/03/19 04:13:50;;;;;;;;;;;;;;;;;;4435170;32;19937;-80
2023/03/19 04:16:15;;;;;;;;;;;;;;;;;;4435266;32;19964;-81
2023/03/19 04:18:40;;;;;;;;;;;;;;;;;;4441317;32;19932;-81
2023/03/19 04:21:05;;;;;;;;;;;;;;;;;;4437202;32;19987;-81
2023/03/19 04:23:31;;;;;;;;;;;;;;;;;;4438532;32;19960;-81
2023/03/19 04:25:56;;;;;;;;;;;;;;;;;;4439932;32;20305;-81
2023/03/19 04:28:21;;;;;;;;;;;;;;;;;;4443794;32;19933;-80
2023/03/19 04:30:46;;;;;;;;;;;;;;;;;;4441198;32;19937;-80
2023/03/19 04:35:55;;;;;;;;;;;;;;;;;;4438075;32;19978;-80
2023/03/19 04:38:20;;;;;;;;;;;;;;;;;;4439163;32;20314;-80
2023/03/19 04:40:45;;;;;;;;;;;;;;;;;;4438003;32;20013;-80
2023/03/19 04:43:10;;;;;;;;;;;;;;;;;;4438465;32;19941;-81
2023/03/19 04:45:35;;;;;;;;;;;;;;;;;;4437580;32;19972;-80
2023/03/19 04:48:01;;;;;;;;;;;;;;;;;;4437415;32;19937;-80
2023/03/19 04:50:26;;;;;;;;;;;;;;;;;;4439329;32;19964;-80
2023/03/19 04:52:51;;;;;;;;;;;;;;;;;;4438688;32;19933;-80
2023/03/19 04:55:17;;;;;;;;;;;;;;;;;;4437352;32;19937;-80
2023/03/19 04:57:42;;;;;;;;;;;;;;;;;;4438879;32;19933;-81
2023/03/19 05:00:07;;;;;;;;;;;;;;;;;;4438393;32;19982;-80
2023/03/19 05:02:32;;;;;;;;;;;;;;;;;;4438848;32;20313;-80
2023/03/19 05:04:57;;;;;;;;;;;;;;;;;;4437634;32;20001;-80
2023/03/19 05:07:22;;;;;;;;;;;;;;;;;;4437309;32;19947;-80
2023/03/19 05:09:48;;;;;;;;;;;;;;;;;;4439097;32;19953;-80
2023/03/19 05:12:14;;;;;;;;;;;;;;;;;;4438463;32;19993;-80
2023/03/19 05:14:39;;;;;;;;;;;;;;;;;;4439085;32;20276;-80
2023/03/19 05:17:04;;;;;;;;;;;;;;;;;;4423496;32;20418;-80
2023/03/19 05:19:29;;;;;;;;;;;;;;;;;;4424571;32;19949;-80
2023/03/19 05:21:56;;;;;;;;;;;;;;;;;;4428470;32;19986;-80
2023/03/19 05:24:22;;;;;;;;;;;;;;;;;;4434081;32;19937;-80
2023/03/19 05:26:47;;;;;;;;;;;;;;;;;;4431810;32;19992;-79
2023/03/19 05:29:13;;;;;;;;;;;;;;;;;;4426509;32;19937;-80
2023/03/19 05:31:38;;;;;;;;;;;;;;;;;;4422551;32;19929;-80
2023/03/19 05:34:03;;;;;;;;;;;;;;;;;;4422548;32;19938;-80
2023/03/19 05:36:28;;;;;;;;;;;;;;;;;;4422454;32;19941;-80
2023/03/19 05:38:54;;;;;;;;;;;;;;;;;;4421997;32;19937;-79
2023/03/19 05:41:19;;;;;;;;;;;;;;;;;;4421676;32;20022;-79
2023/03/19 05:43:44;;;;;;;;;;;;;;;;;;4421993;32;20305;-80
2023/03/19 05:46:09;;;;;;;;;;;;;;;;;;4423130;32;19975;-80
2023/03/19 05:48:34;;;;;;;;;;;;;;;;;;4423207;32;19934;-80
2023/03/19 05:50:59;;;;;;;;;;;;;;;;;;4422267;32;19937;-79
2023/03/19 05:53:24;;;;;;;;;;;;;;;;;;4423957;32;19977;-80
2023/03/19 05:55:49;;;;;;;;;;;;;;;;;;4420960;32;19944;-81
2023/03/19 05:58:15;;;;;;;;;;;;;;;;;;4422728;32;19996;-80
2023/03/19 06:00:41;;;;;;;;;;;;;;;;;;4422029;32;19986;-80
2023/03/19 06:03:06;;;;;;;;;;;;;;;;;;4421295;32;19929;-80
2023/03/19 06:05:31;;;;;;;;;;;;;;;;;;4422256;32;19977;-81
2023/03/19 06:07:56;;;;;;;;;;;;;;;;;;4421094;32;19937;-81
2023/03/19 06:10:21;;;;;;;;;;;;;;;;;;4422742;32;19980;-81
2023/03/19 06:12:46;;;;;;;;;;;;;;;;;;4422289;32;19941;-80
2023/03/19 06:15:11;;;;;;;;;;;;;;;;;;4422971;32;19985;-81
2023/03/19 06:17:36;;;;;;;;;;;;;;;;;;4421142;32;19952;-81
2023/03/19 06:20:02;;;;;;;;;;;;;;;;;;4426932;32;19980;-80
2023/03/19 06:22:27;;;;;;;;;;;;;;;;;;4433022;32;20329;-80
2023/03/19 06:24:52;;;;;;;;;;;;;;;;;;4425825;32;19976;-80
2023/03/19 06:27:17;;;;;;;;;;;;;;;;;;4421573;32;20357;-80
2023/03/19 06:29:42;;;;;;;;;;;;;;;;;;4421059;32;19940;-80
2023/03/19 06:32:07;;;;;;;;;;;;;;;;;;4420857;32;19937;-80
2023/03/19 06:34:32;;;;;;;;;;;;;;;;;;4420808;32;20027;-79
2023/03/19 06:36:58;;;;;;;;;;;;;;;;;;4421613;32;20299;-80
2023/03/19 06:39:23;;;;;;;;;;;;;;;;;;4420345;32;20301;-80
2023/03/19 06:41:48;;;;;;;;;;;;;;;;;;4420541;32;19944;-80
2023/03/19 06:44:13;;;;;;;;;;;;;;;;;;4420317;32;19938;-80
2023/03/19 06:46:38;;;;;;;;;;;;;;;;;;4421551;32;19940;-80
2023/03/19 06:49:03;;;;;;;;;;;;;;;;;;4423619;32;19937;-80
2023/03/19 06:51:29;;;;;;;;;;;;;;;;;;4420972;32;20332;-80
2023/03/19 06:53:54;;;;;;;;;;;;;;;;;;4421389;32;19936;-81
2023/03/19 06:56:19;;;;;;;;;;;;;;;;;;4430329;32;19949;-80
2023/03/19 06:58:45;;;;;;;;;;;;;;;;;;4437689;32;20013;-79
2023/03/19 07:01:10;;;;;;;;;;;;;;;;;;4437974;32;19937;-79
2023/03/19 07:03:35;;;;;;;;;;;;;;;;;;4437794;32;20369;-80
2023/03/19 07:06:00;;;;;;;;;;;;;;;;;;4437846;32;19992;-80
2023/03/19 07:08:28;;;;;;;;;;;;;;;;;;4438639;32;19968;-79
2023/03/19 07:10:53;;;;;;;;;;;;;;;;;;4437885;32;20358;-79
2023/03/19 07:13:18;;;;;;;;;;;;;;;;;;4426783;32;19933;-81
2023/03/19 07:15:43;;;;;;;;;;;;;;;;;;4444775;32;19936;-79
2023/03/19 07:18:08;;;;;;;;;;;;;;;;;;4441788;32;19932;-80
2023/03/19 07:20:34;;;;;;;;;;;;;;;;;;4431296;32;19968;-79
2023/03/19 07:22:59;;;;;;;;;;;;;;;;;;4448461;32;19933;-79
2023/03/19 07:25:24;;;;;;;;;;;;;;;;;;4439710;32;20020;-79
2023/03/19 07:27:50;;;;;;;;;;;;;;;;;;4438067;32;19955;-79
2023/03/19 07:30:16;;;;;;;;;;;;;;;;;;4443350;32;19937;-79
2023/03/19 07:32:41;;;;;;;;;;;;;;;;;;4444988;32;19936;-80
2023/03/19 07:35:07;;;;;;;;;;;;;;;;;;4439548;32;19952;-79
2023/03/19 07:37:32;;;;;;;;;;;;;;;;;;4423269;32;19941;-78
2023/03/19 07:39:57;;;;;;;;;;;;;;;;;;4439419;32;20303;-80
2023/03/19 07:42:22;;;;;;;;;;;;;;;;;;4422688;32;20285;-81
2023/03/19 07:44:47;;;;;;;;;;;;;;;;;;4436633;32;20251;-79
2023/03/19 07:47:12;;;;;;;;;;;;;;;;;;4422159;32;19993;-79
2023/03/19 07:49:37;;;;;;;;;;;;;;;;;;4436697;32;19940;-79
2023/03/19 07:52:02;;;;;;;;;;;;;;;;;;4436525;32;19933;-79
2023/03/19 07:54:28;;;;;;;;;;;;;;;;;;4436331;32;19976;-79
2023/03/19 07:56:53;;;;;;;;;;;;;;;;;;4430195;32;19940;-80
2023/03/19 07:59:18;;;;;;;;;;;;;;;;;;4438234;32;19988;-79
2023/03/19 08:01:43;;;;;;;;;;;;;;;;;;4436818;32;19944;-79
2023/03/19 08:04:08;;;;;;;;;;;;;;;;;;4435583;32;20001;-79
2023/03/19 08:06:33;;;;;;;;;;;;;;;;;;4436384;32;20284;-79
2023/03/19 08:08:58;;;;;;;;;;;;;;;;;;4436689;32;19933;-79
2023/03/19 08:11:23;;;;;;;;;;;;;;;;;;4440170;32;19981;-79
2023/03/19 08:13:49;;;;;;;;;;;;;;;;;;4439395;32;19947;-80
2023/03/19 08:16:14;;;;;;;;;;;;;;;;;;4438607;32;19933;-80
2023/03/19 08:18:39;;;;;;;;;;;;;;;;;;4437917;32;19937;-80
2023/03/19 08:21:04;;;;;;;;;;;;;;;;;;4438711;32;20257;-81
2023/03/19 08:23:29;;;;;;;;;;;;;;;;;;4439533;32;19967;-80
2023/03/19 08:28:39;;;;;;;;;;;;;;;;;;4439327;32;19976;-80
2023/03/19 08:31:04;;;;;;;;;;;;;;;;;;4437843;32;19932;-80
2023/03/19 08:33:30;;;;;;;;;;;;;;;;;;4440761;32;19936;-82
2023/03/19 08:35:55;;;;;;;;;;;;;;;;;;4441713;32;19998;-82
2023/03/19 08:38:20;;;;;;;;;;;;;;;;;;4440208;32;19948;-82
2023/03/19 08:40:45;;;;;;;;;;;;;;;;;;4439826;32;19972;-82
2023/03/19 08:43:10;;;;;;;;;;;;;;;;;;4438605;32;20273;-83
2023/03/19 08:45:35;;;;;;;;;;;;;;;;;;4441310;32;20090;-81
2023/03/19 08:48:00;;;;;;;;;;;;;;;;;;4441747;32;19948;-83
2023/03/19 08:50:26;;;;;;;;;;;;;;;;;;4440769;32;20229;-83
2023/03/19 08:52:51;;;;;;;;;;;;;;;;;;4445644;32;19929;-83
2023/03/19 08:55:17;;;;;;;;;;;;;;;;;;4449285;32;19929;-82
2023/03/19 08:57:42;;;;;;;;;;;;;;;;;;4453845;32;19935;-78
2023/03/19 09:00:07;;;;;;;;;;;;;;;;;;4454896;32;19950;-81
2023/03/19 09:02:32;;;;;;;;;;;;;;;;;;4453515;32;19929;-82
2023/03/19 09:04:57;;;;;;;;;;;;;;;;;;4452110;32;19932;-81
2023/03/19 09:07:22;;;;;;;;;;;;;;;;;;4450878;32;19949;-81
2023/03/19 09:09:47;;;;;;;;;;;;;;;;;;4449893;32;19941;-82
2023/03/19 09:12:12;;;;;;;;;;;;;;;;;;4450696;32;19947;-81
2023/03/19 09:14:38;;;;;;;;;;;;;;;;;;4451279;32;19956;-81
2023/03/19 09:17:03;;;;;;;;;;;;;;;;;;4452341;32;20008;-82
2023/03/19 09:19:28;;;;;;;;;;;;;;;;;;4453119;32;19976;-82
2023/03/19 09:21:54;;;;;;;;;;;;;;;;;;4452004;32;19933;-82
2023/03/19 09:24:19;;;;;;;;;;;;;;;;;;4453225;32;19947;-82
2023/03/19 09:26:44;;;;;;;;;;;;;;;;;;4451913;32;19962;-82
2023/03/19 09:29:10;;;;;;;;;;;;;;;;;;4444711;32;19949;-81
2023/03/19 09:31:35;;;;;;;;;;;;;;;;;;4440988;32;20410;-84
2023/03/19 09:34:00;;;;;;;;;;;;;;;;;;4440977;32;19937;-85
2023/03/19 09:36:25;;;;;;;;;;;;;;;;;;4448682;32;19999;-84
2023/03/19 09:38:50;;;;;;;;;;;;;;;;;;4450981;32;19932;-84
2023/03/19 09:41:15;;;;;;;;;;;;;;;;;;4448047;32;19968;-84
2023/03/19 09:43:40;;;;;;;;;;;;;;;;;;4445343;32;19937;-84
2023/03/19 09:46:06;;;;;;;;;;;;;;;;;;4447137;32;20003;-84
2023/03/19 09:48:31;;;;;;;;;;;;;;;;;;4442203;32;19937;-84
2023/03/19 09:50:56;;;;;;;;;;;;;;;;;;4445893;32;19974;-84
2023/03/19 09:53:21;;;;;;;;;;;;;;;;;;4444308;32;20235;-83
2023/03/19 09:55:46;;;;;;;;;;;;;;;;;;4442713;32;19941;-84
2023/03/19 09:58:11;;;;;;;;;;;;;;;;;;4446427;32;19932;-84
2023/03/19 10:00:36;;;;;;;;;;;;;;;;;;4453491;32;19941;-84
2023/03/19 10:03:01;;;;;;;;;;;;;;;;;;4446616;32;19925;-83
2023/03/19 10:05:27;;;;;;;;;;;;;;;;;;4441326;32;20008;-82
2023/03/19 10:07:52;;;;;;;;;;;;;;;;;;4443287;32;19970;-83
2023/03/19 10:10:17;;;;;;;;;;;;;;;;;;4440027;32;19947;-83
2023/03/19 10:12:42;;;;;;;;;;;;;;;;;;4436490;32;19976;-84
2023/03/19 10:15:07;;;;;;;;;;;;;;;;;;4436923;32;19947;-83
2023/03/19 10:17:32;;;;;;;;;;;;;;;;;;4436157;32;19937;-83
2023/03/19 10:19:57;;;;;;;;;;;;;;;;;;4437773;32;19955;-82
2023/03/19 10:22:22;;;;;;;;;;;;;;;;;;4439558;32;19932;-82
2023/03/19 10:30:09;;;;;;;;;;;;;;;;;;4437859;32;19932;-83
2023/03/19 10:32:34;;;;;;;;;;;;;;;;;;4438082;32;19936;-83
2023/03/19 10:34:59;;;;;;;;;;;;;;;;;;4436482;32;19948;-82
2023/03/19 10:37:25;;;;;;;;;;;;;;;;;;4436630;32;19941;-82
2023/03/19 10:39:50;;;;;;;;;;;;;;;;;;4436435;32;20020;-83
2023/03/19 10:42:15;;;;;;;;;;;;;;;;;;4436993;32;19946;-82
2023/03/19 10:44:40;;;;;;;;;;;;;;;;;;4437011;32;20005;-82
2023/03/19 10:47:06;;;;;;;;;;;;;;;;;;4437574;32;20003;-81
2023/03/19 10:49:31;;;;;;;;;;;;;;;;;;4438742;32;20309;-82
2023/03/19 10:51:56;;;;;;;;;;;;;;;;;;4435933;32;20038;-82
2023/03/19 10:54:21;;;;;;;;;;;;;;;;;;4438061;32;19989;-83
2023/03/19 10:56:46;;;;;;;;;;;;;;;;;;4436371;32;19937;-82
2023/03/19 10:59:11;;;;;;;;;;;;;;;;;;4436332;32;20317;-82
2023/03/19 11:01:36;;;;;;;;;;;;;;;;;;4436171;32;19940;-83
2023/03/19 11:04:01;;;;;;;;;;;;;;;;;;4445741;32;19917;-83
2023/03/19 11:06:27;;;;;;;;;;;;;;;;;;4437721;32;20310;-82
2023/03/19 11:08:52;;;;;;;;;;;;;;;;;;4437687;32;19944;-82
2023/03/19 11:11:18;;;;;;;;;;;;;;;;;;4438223;32;19955;-82
2023/03/19 11:13:43;;;;;;;;;;;;;;;;;;4437148;32;19947;-81
2023/03/19 11:16:09;;;;;;;;;;;;;;;;;;4436529;32;19937;-80
2023/03/19 11:18:34;;;;;;;;;;;;;;;;;;4436330;32;20314;-80
2023/03/19 11:21:01;;;;;;;;;;;;;;;;;;4436254;32;20294;-79
2023/03/19 11:23:26;;;;;;;;;;;;;;;;;;4436280;32;19972;-80
2023/03/19 11:25:51;;;;;;;;;;;;;;;;;;4435077;32;19937;-80
2023/03/19 11:28:16;;;;;;;;;;;;;;;;;;4436409;32;19968;-79
2023/03/19 11:30:41;;;;;;;;;;;;;;;;;;4435228;32;20291;-79
2023/03/19 11:35:50;;;;;;;;;;;;;;;;;;4437087;32;19961;-81
2023/03/19 11:38:16;;;;;;;;;;;;;;;;;;4437986;32;19972;-80
2023/03/19 11:40:41;;;;;;;;;;;;;;;;;;4436608;32;19941;-80
2023/03/19 11:43:06;;;;;;;;;;;;;;;;;;4441996;32;19929;-79
2023/03/19 11:45:32;;;;;;;;;;;;;;;;;;4448621;32;19973;-80
2023/03/19 11:47:57;;;;;;;;;;;;;;;;;;4444403;32;19951;-80
2023/03/19 11:50:22;;;;;;;;;;;;;;;;;;4440793;32;19951;-79
2023/03/19 11:52:47;;;;;;;;;;;;;;;;;;4442006;32;19948;-80
2023/03/19 11:55:12;;;;;;;;;;;;;;;;;;4441971;32;19952;-80
2023/03/19 11:57:38;;;;;;;;;;;;;;;;;;4441595;32;19945;-81
2023/03/19 12:00:03;;;;;;;;;;;;;;;;;;4440480;32;19933;-80
2023/03/19 12:02:29;;;;;;;;;;;;;;;;;;4443275;32;19941;-80
2023/03/19 12:04:54;;;;;;;;;;;;;;;;;;4445280;32;20307;-79
2023/03/19 12:07:19;;;;;;;;;;;;;;;;;;4448401;32;19941;-81
2023/03/19 12:09:45;;;;;;;;;;;;;;;;;;4442890;32;19943;-81
2023/03/19 12:12:10;;;;;;;;;;;;;;;;;;4442688;32;19944;-81
2023/03/19 12:14:35;;;;;;;;;;;;;;;;;;4441106;32;19950;-80
2023/03/19 12:17:03;;;;;;;;;;;;;;;;;;4440689;32;19948;-81
2023/03/19 12:19:28;;;;;;;;;;;;;;;;;;4442052;32;20319;-80
2023/03/19 12:21:53;;;;;;;;;;;;;;;;;;4441993;32;19937;-81
2023/03/19 12:24:18;;;;;;;;;;;;;;;;;;4440507;32;19948;-80
2023/03/19 12:26:43;;;;;;;;;;;;;;;;;;4440874;32;19937;-79
2023/03/19 12:29:09;;;;;;;;;;;;;;;;;;4440328;32;19950;-79
2023/03/19 12:31:34;;;;;;;;;;;;;;;;;;4440236;32;19944;-79
2023/03/19 12:33:59;;;;;;;;;;;;;;;;;;4439752;32;19937;-80
2023/03/19 12:36:24;;;;;;;;;;;;;;;;;;4440253;32;19941;-79
2023/03/19 12:38:50;;;;;;;;;;;;;;;;;;4439913;32;19950;-79
2023/03/19 12:41:16;;;;;;;;;;;;;;;;;;4439736;32;19980;-80
2023/03/19 12:43:41;;;;;;;;;;;;;;;;;;4442022;32;20291;-79
2023/03/19 12:46:07;;;;;;;;;;;;;;;;;;4445666;32;19955;-79
2023/03/19 12:48:32;;;;;;;;;;;;;;;;;;4447040;32;19937;-78
2023/03/19 12:50:57;;;;;;;;;;;;;;;;;;4447838;32;19940;-79
2023/03/19 12:53:22;;;;;;;;;;;;;;;;;;4442104;32;19937;-78
2023/03/19 12:55:48;;;;;;;;;;;;;;;;;;4439079;32;19943;-79
2023/03/19 12:58:13;;;;;;;;;;;;;;;;;;4438512;32;19969;-80
2023/03/19 13:00:38;;;;;;;;;;;;;;;;;;4439036;32;19948;-80
2023/03/19 13:03:03;;;;;;;;;;;;;;;;;;4436950;32;19977;-80
2023/03/19 13:05:28;;;;;;;;;;;;;;;;;;4439387;32;19948;-79
2023/03/19 13:07:54;;;;;;;;;;;;;;;;;;4439984;32;19933;-79
2023/03/19 13:10:19;;;;;;;;;;;;;;;;;;4438835;32;19936;-78
2023/03/19 13:12:44;;;;;;;;;;;;;;;;;;4438597;32;19949;-79
2023/03/19 13:15:09;;;;;;;;;;;;;;;;;;4437578;32;20330;-81
2023/03/19 13:17:35;;;;;;;;;;;;;;;;;;4438273;32;19932;-79
2023/03/19 13:20:01;;;;;;;;;;;;;;;;;;4437212;32;19932;-79
2023/03/19 13:22:26;;;;;;;;;;;;;;;;;;4437052;32;19959;-80
2023/03/19 13:24:52;;;;;;;;;;;;;;;;;;4437296;32;19947;-79
2023/03/19 13:27:17;;;;;;;;;;;;;;;;;;4436984;32;20316;-79
2023/03/19 13:29:42;;;;;;;;;;;;;;;;;;4438943;32;19941;-80
2023/03/19 13:32:09;;;;;;;;;;;;;;;;;;4437094;32;19932;-79
2023/03/19 13:34:34;;;;;;;;;;;;;;;;;;4439176;32;19985;-80
2023/03/19 13:36:59;;;;;;;;;;;;;;;;;;4440661;32;19932;-79
2023/03/19 13:39:26;;;;;;;;;;;;;;;;;;4441314;32;19947;-78
2023/03/19 13:41:51;;;;;;;;;;;;;;;;;;4443906;32;19940;-79
2023/03/19 13:44:16;;;;;;;;;;;;;;;;;;4436953;32;19948;-80
2023/03/19 13:46:43;;;;;;;;;;;;;;;;;;4438541;32;19996;-78
2023/03/19 13:49:09;;;;;;;;;;;;;;;;;;4441287;32;19933;-80
2023/03/19 13:51:34;;;;;;;;;;;;;;;;;;4445193;32;19952;-79
2023/03/19 13:53:59;;;;;;;;;;;;;;;;;;4439571;32;19973;-79
2023/03/19 13:56:24;;;;;;;;;;;;;;;;;;4436831;32;19984;-79
2023/03/19 13:58:50;;;;;;;;;;;;;;;;;;4437547;32;19929;-80
2023/03/19 14:01:16;;;;;;;;;;;;;;;;;;4443424;32;19987;-79
2023/03/19 14:03:41;;;;;;;;;;;;;;;;;;4440321;32;19953;-79
2023/03/19 14:06:06;;;;;;;;;;;;;;;;;;4438309;32;19948;-80
2023/03/19 14:08:32;;;;;;;;;;;;;;;;;;4436515;32;19962;-80
2023/03/19 14:10:57;;;;;;;;;;;;;;;;;;4437062;32;19961;-80
2023/03/19 14:13:22;;;;;;;;;;;;;;;;;;4433965;32;20284;-80
2023/03/19 14:15:47;;;;;;;;;;;;;;;;;;4438267;32;19973;-78
2023/03/19 14:18:12;;;;;;;;;;;;;;;;;;4437073;32;19936;-80
2023/03/19 14:20:38;;;;;;;;;;;;;;;;;;4437839;32;20025;-80
2023/03/19 14:23:03;;;;;;;;;;;;;;;;;;4438563;32;19984;-80
2023/03/19 14:25:28;;;;;;;;;;;;;;;;;;4436287;32;19970;-81
2023/03/19 14:27:53;;;;;;;;;;;;;;;;;;4437402;32;20307;-80
2023/03/19 14:30:18;;;;;;;;;;;;;;;;;;4437300;32;19948;-80
2023/03/19 14:32:46;;;;;;;;;;;;;;;;;;4436710;32;19937;-80
2023/03/19 14:35:11;;;;;;;;;;;;;;;;;;4436193;32;19993;-81
2023/03/19 14:37:36;;;;;;;;;;;;;;;;;;4438444;32;19948;-81
2023/03/19 14:40:01;;;;;;;;;;;;;;;;;;4435914;32;20414;-81
2023/03/19 14:42:27;;;;;;;;;;;;;;;;;;4436726;32;19951;-81
2023/03/19 14:44:52;;;;;;;;;;;;;;;;;;4437006;32;19948;-80
2023/03/19 14:47:17;;;;;;;;;;;;;;;;;;4435951;32;19952;-80
2023/03/19 14:49:42;;;;;;;;;;;;;;;;;;4438135;32;19933;-80
2023/03/19 14:52:07;;;;;;;;;;;;;;;;;;4437368;32;19952;-80
2023/03/19 14:54:32;;;;;;;;;;;;;;;;;;4438538;32;20314;-85
2023/03/19 14:56:57;;;;;;;;;;;;;;;;;;4440300;32;19937;-74
2023/03/19 15:01:52;;;;;;;41.80;19.48;;;;;;;;;;4483277;31;20444;-83
2023/03/19 15:04:20;;;;;;;42.13;20.73;;;;;;;;;;4451698;32;20073;-82
2023/03/19 15:06:50;;;;;;;39.67;20.77;;;;;;;;;;4467032;32;20052;-85
2023/03/19 15:09:19;;;;;;;44.75;22.73;;;;;;;;;;4452069;32;20053;-82
2023/03/19 15:12:04;;;;;;;49.53;21.92;;;;;;;;;;4464577;32;20044;-81
2023/03/19 15:14:37;;;;;;;42.25;22.67;;;;;;;;;;4448776;32;20052;-82
2023/03/19 15:17:29;;;;;;;44.78;24.00;;;;;;;;;;4450574;32;20013;-82
2023/03/19 15:19:55;;;;;;;47.13;22.45;;;;;;;;;;4447857;32;20022;-82
2023/03/19 15:22:20;;;;;;;;;;;;;;;;;;4453177;32;20040;-80
2023/03/19 15:24:46;;;;;;;33.45;19.08;;;;;;;;;;4453114;32;19976;-82
2023/03/19 15:27:11;;;;;;;;;;;;;;;;;;4453412;32;20120;-82
2023/03/19 15:29:36;;;;;;;24.50;15.00;;;;;;;;;;4450515;32;19941;-82
2023/03/19 15:32:01;;;;;;;27.90;17.55;;;;;;;;;;4451579;32;20047;-82
2023/03/19 15:34:27;;;;;;;26.23;16.37;;;;;;;;;;4444678;32;20049;-82
2023/03/19 15:36:58;;;;;;;26.48;16.12;;;;;;;;;;4449365;32;20013;-82
2023/03/19 15:39:26;;;;;;;28.55;18.10;;;;;;;;;;4442130;32;20014;-82
2023/03/19 15:41:51;;;;;;;26.05;16.05;;;;;;;;;;4456922;32;20051;-80
2023/03/19 15:44:37;;;;;;;24.50;16.85;;;;;;;;;;4444491;32;20022;-82
2023/03/19 15:47:04;;;;;;;23.40;16.42;;;;;;;;;;4451441;32;20082;-82
2023/03/19 15:49:34;;;;;;;24.17;16.67;;;;;;;;;;4449749;32;20078;-82
2023/03/19 15:52:01;;;;;;;22.45;15.85;;;;;;;;;;4449571;32;20060;-81
2023/03/19 15:54:26;;;;;;;23.92;17.35;;;;;;;;;;4450557;32;20017;-82
2023/03/19 15:56:52;;;;;;;24.85;15.70;;;;;;;;;;4448011;32;20021;-81
2023/03/19 15:59:19;;;;;;;22.52;14.23;;;;;;;;;;4458083;32;20017;-82
2023/03/19 16:01:44;;;;;;;21.70;15.38;;;;;;;;;;4435873;32;20049;-81
2023/03/19 16:04:09;;;;;;;;;;;;;;;;;;4436651;32;20021;-82
2023/03/19 16:06:40;;;;;;;19.23;15.45;;;;;;;;;;4451821;32;19929;-81
2023/03/19 16:09:14;;;;;;;23.85;16.70;;;;;;;;;;4450094;32;20044;-81
2023/03/19 16:11:43;;;;;;;23.20;16.73;;;;;;;;;;4431204;32;20022;-81
2023/03/19 16:14:17;;;;;;;30.75;19.12;;;;;;;;;;4424282;32;20052;-82
2023/03/19 16:16:44;;;;;;;32.90;20.45;;;;;;;;;;4424467;32;20022;-82
2023/03/19 16:19:29;;;;;;;27.42;17.45;;;;;;;;;;4426401;32;20026;-78
2023/03/19 16:21:54;;;;;;;21.92;14.80;;;;;;;;;;4438185;32;20346;-79
2023/03/19 16:24:36;;;;;;;22.92;15.85;;;;;;;;;;4438392;32;20040;-80
2023/03/19 16:27:05;;;;;;;23.45;16.20;;;;;;;;;;4423879;32;20041;-80
2023/03/19 16:29:41;;;;;;;28.00;18.02;;;;;;;;;;4438522;32;20051;-78
2023/03/19 16:32:26;;;;;;;25.53;16.87;;;;;;;;;;4438682;32;20131;-80
2023/03/19 16:35:01;;;;;;;25.65;17.48;;;;;;;;;;4437850;32;20021;-80
2023/03/19 16:37:26;;;;;;;29.23;17.20;;;;;;;;;;4437832;32;20097;-81